Home > Products > Valid Products > MTR

000
SAUS45 KPIH 181252
MTRSNT
METAR KSNT 181251Z AUTO 00000KT 02/01 A2989 RMK AO1 SLP067 T00220006





000
SAUS45 KPIH 181152
MTRSNT
METAR KSNT 181151Z AUTO 17005KT 02/01 A2989 RMK AO1 SLP071 60012
7//// T00170011 10044 20017 53011





000
SAUS45 KPIH 181052
MTRSNT
METAR KSNT 181051Z AUTO 00000KT 02/02 A2987 RMK AO1 SLP064 P0001
T00220017





000
SAUS45 KPIH 180952
MTRSNT
METAR KSNT 180951Z AUTO 00000KT 02/02 A2985 RMK AO1 SLP055 T00220022





000
SAUS45 KPIH 180852
MTRSNT
METAR KSNT 180851Z AUTO 00000KT 02/01 A2985 RMK AO1 SLP057 P0001
60011 T00170011 50001





000
SAUS45 KPIH 180752
MTRSNT
METAR KSNT 180751Z AUTO 18003KT 03/02 A2985 RMK AO1 SLP061 P0001
T00280022





000
SAUS45 KPIH 180652
MTRSNT
METAR KSNT 180651Z AUTO 19004KT 04/03 A2985 RMK AO1 SLP061 P0009
T00440033 401111083





000
SAUS45 KPIH 180552
MTRSNT
METAR KSNT 180551Z AUTO VRB03KT 04/03 A2985 RMK AO1 SLP064 T00440028
10111 20044 51014





000
SAUS45 KPIH 180452
MTRSNT
METAR KSNT 180451Z AUTO 33005KT 06/00 A2983 RMK AO1 SLP062 T00560000





000
SAUS45 KPIH 180352
MTRSNT
METAR KSNT 180351Z AUTO 13007KT 07/M02 A2981 RMK AO1 SLP058
T00721022





000
SAUS45 KPIH 180252
MTRSNT
METAR KSNT 180251Z AUTO 14008KT 08/M02 A2980 RMK AO1 SLPNO T00831022
56020





000
SAUS45 KPIH 180152
MTRSNT
METAR KSNT 180151Z AUTO 19007KT 09/M03 A2981 RMK AO1 SLP061
T00891028





000
SAUS45 KPIH 180052
MTRSNT
METAR KSNT 180051Z AUTO 14009G15KT 11/M03 A2983 RMK AO1 SLP074
T01061033





000
SAUS45 KPIH 172352
MTRSNT
METAR KSNT 172351Z AUTO 16006KT 10/M03 A2987 RMK AO1 SLP085
T01001033 10111 20039 58015





000
SAUS45 KPIH 172252
MTRSNT
METAR KSNT 172251Z AUTO 16011KT 10/M04 A2988 RMK AO1 SLP090
T01001039





000
SAUS45 KPIH 172152
MTRSNT
METAR KSNT 172151Z AUTO 00000KT 11/M04 A2991 RMK AO1 SLP093
T01061039





000
SAUS45 KPIH 172052
MTRSNT
METAR KSNT 172051Z AUTO 20010G15KT 11/M04 A2992 RMK AO1 SLP098
T01061039 56013





000
SAUS45 KPIH 171952
MTRSNT
METAR KSNT 171951Z AUTO 00000KT 08/M05 A2993 RMK AO1 SLP106
T00831050





000
SAUS45 KPIH 171852
MTRSNT
METAR KSNT 171851Z AUTO 36005KT 06/M06 A2995 RMK AO1 SLP114
T00611061





000
SAUS45 KPIH 171752
MTRSNT
METAR KSNT 171751Z AUTO 00000KT 04/M06 A2996 RMK AO1 SLP125 6////
T00391061 56020





000
SAUS45 KPIH 171652
MTRSNT
METAR KSNT 171651Z AUTO 32003KT 02/M07 A2999 RMK AO1 SLP136
T00171072





000
SAUS45 KPIH 171552
MTRSNT
METAR KSNT 171551Z AUTO 00000KT M01/M07 A3001 RMK AO1 SLP152
T10111072





000
SAUS45 KPIH 171452
MTRSNT
METAR KSNT 171451Z AUTO 00000KT A3003 RMK AO1 SLPNO 6//// 51003 PNO
$





000
SAUS45 KPIH 171352
MTRSNT
METAR KSNT 171351Z AUTO 00000KT M05/M09 A3004 RMK AO1 SLP150
T10501089





000
SAUS45 KPIH 171252
MTRSNT
METAR KSNT 171251Z AUTO 00000KT M08/M10 A3003 RMK AO1 SLP155
T10781100





000
SAUS45 KPIH 171152
MTRSNT
METAR KSNT 171151Z AUTO 16005KT M07/M09 A3002 RMK AO1 SLP149
T10671094 11022 21072 58002





000
SAUS45 KPIH 171052
MTRSNT
METAR KSNT 171051Z AUTO 13003KT M07/M09 A3004 RMK AO1 SLP156
T10721094





000
SAUS45 KPIH 170952
MTRSNT
METAR KSNT 170951Z AUTO 00000KT M05/M08 A3004 RMK AO1 SLP153
T10501083





000
SAUS45 KPIH 170852
MTRSNT
METAR KSNT 170851Z AUTO 00000KT M06/M08 A3003 RMK AO1 SLP149
T10561078 58002





000
SAUS45 KPIH 170752
MTRSNT
METAR KSNT 170751Z AUTO 00000KT M04/M08 A3006 RMK AO1 SLP158
T10441083





000
SAUS45 KPIH 170652
MTRSNT
METAR KSNT 170651Z AUTO 15004KT M03/M08 A3005 RMK AO1 SLP159
T10331078 400721100





000
SAUS45 KPIH 170552
MTRSNT
METAR KSNT 170551Z AUTO 16004KT M03/M08 A3004 RMK AO1 SLP158
T10281078 10072 21039 51010





000
SAUS45 KPIH 170452
MTRSNT
METAR KSNT 170451Z AUTO 00000KT M02/M07 A3003 RMK AO1 SLP158
T10221072





000
SAUS45 KPIH 170352
MTRSNT
METAR KSNT 170351Z AUTO 19004KT M03/M07 A3002 RMK AO1 SLP166
T10281067





000
SAUS45 KPIH 170252
MTRSNT
METAR KSNT 170251Z AUTO 00000KT 02/M08 A3000 RMK AO1 SLP151
T00171078 51004





000
SAUS45 KPIH 170152
MTRSNT
METAR KSNT 170151Z AUTO 32005KT 06/M09 A3000 RMK AO1 SLP144
T00561089





000
SAUS45 KPIH 170052
MTRSNT
METAR KSNT 170051Z AUTO 30005KT 07/M10 A2999 RMK AO1 SLP145
T00671100





000
SAUS45 KPIH 162352
MTRSNT
METAR KSNT 162351Z AUTO 32006KT 07/M11 A2999 RMK AO1 SLP144
T00671111 10072 20017 58005





000
SAUS45 KPIH 162252
MTRSNT
METAR KSNT 162251Z AUTO 29005KT 07/M11 A3000 RMK AO1 SLP140
T00671111





000
SAUS45 KPIH 162152
MTRSNT
METAR KSNT 162151Z AUTO 24008KT 06/M12 A3000 RMK AO1 SLP143
T00611122





000
SAUS45 KPIH 162052
MTRSNT
METAR KSNT 162051Z AUTO VRB06KT 06/M12 A3001 RMK AO1 SLP144
T00611122 56005





000
SAUS45 KPIH 161952
MTRSNT
METAR KSNT 161951Z AUTO 03005KT 06/M14 A3001 RMK AO1 SLP142
T00561139





000
SAUS45 KPIH 161852
MTRSNT
METAR KSNT 161851Z AUTO 34006KT 03/M14 A3002 RMK AO1 SLP151
T00331144





000
SAUS45 KPIH 161752
MTRSNT
METAR KSNT 161751Z AUTO 35004KT 02/M10 A3003 RMK AO1 SLP154
T00171100 10017 21100 58003





000
SAUS45 KPIH 161652
MTRSNT
METAR KSNT 161651Z AUTO 34003KT M01/M10 A3004 RMK AO1 SLP162
T10111100





000
SAUS45 KPIH 161552
MTRSNT
METAR KSNT 161551Z AUTO 35004KT M04/M10 A3004 RMK AO1 SLP171
T10391100





000
SAUS45 KPIH 161452
MTRSNT
METAR KSNT 161451Z AUTO 11003KT M06/M12 A3004 RMK AO1 SLP166
T10561122 50005





000
SAUS45 KPIH 161352
MTRSNT
METAR KSNT 161351Z AUTO 00000KT M07/M12 A3004 RMK AO1 SLP171
T10721117





000
SAUS45 KPIH 161252
MTRSNT
METAR KSNT 161251Z AUTO 17003KT M09/M13 A3003 RMK AO1 SLP168
T10891128





000
SAUS45 KPIH 161152
MTRSNT
METAR KSNT 161151Z AUTO 17003KT M09/M13 A3002 RMK AO1 SLP172
T10941128 11028 21100 53003





000
SAUS45 KPIH 161052
MTRSNT
METAR KSNT 161051Z AUTO 00000KT M07/M12 A3002 RMK AO1 SLP155
T10721122





000
SAUS45 KPIH 160952
MTRSNT
METAR KSNT 160951Z AUTO 00000KT M07/M12 A3001 RMK AO1 SLP146
T10671122





000
SAUS45 KPIH 160853
MTRSNT
METAR KSNT 160851Z AUTO 18003KT M06/M12 A3001 RMK AO1 SLP145
T10611117 50004





000
SAUS45 KPIH 160752
MTRSNT
METAR KSNT 160751Z AUTO 00000KT M05/M12 A3002 RMK AO1 SLP148
T10501122





000
SAUS45 KPIH 160652
MTRSNT
METAR KSNT 160651Z AUTO 20003KT M05/M12 A3001 RMK AO1 SLP149
T10501122 400611061





000
SAUS45 KPIH 160552
MTRSNT
METAR KSNT 160551Z AUTO 29004KT M03/M13 A3000 RMK AO1 SLP137
T10281128 10033 21044 51010





000
SAUS45 KPIH 160452
MTRSNT
METAR KSNT 160451Z AUTO 26003KT M02/M13 A2999 RMK AO1 SLP133
T10221128





000
SAUS45 KPIH 160352
MTRSNT
METAR KSNT 160351Z AUTO 29003KT M02/M09 A2998 RMK AO1 SLP143
T10171089





000
SAUS45 KPIH 160252
MTRSNT
METAR KSNT 160251Z AUTO 31003KT 01/M08 A2996 RMK AO1 SLP130
T00111083 53008





000
SAUS45 KPIH 160152
MTRSNT
METAR KSNT 160151Z AUTO 31009KT 02/M08 A2994 RMK AO1 SLP126
T00171078





000
SAUS45 KPIH 160052
MTRSNT
METAR KSNT 160051Z AUTO 36009KT 02/M04 A2994 RMK AO1 SLP124
T00171044





000
SAUS45 KPIH 152352
MTRSNT
METAR KSNT 152351Z AUTO 35007G15KT 01/M03 A2993 RMK AO1 SLP125
T00061028 10061 20000 53008





000
SAUS45 KPIH 152252
MTRSNT
METAR KSNT 152251Z AUTO 33009KT 04/M07 A2990 RMK AO1 SLP101
T00391072





000
SAUS45 KPIH 152152
MTRSNT
METAR KSNT 152151Z AUTO 32015G25KT 05/M08 A2989 RMK AO1 SLP098
T00501083





000
SAUS45 KPIH 152052
MTRSNT
METAR KSNT 152051Z AUTO 29010G16KT 260V320 06/M08 A2990 RMK AO1
SLP101 T00561078 56005





000
SAUS45 KPIH 151952
MTRSNT
METAR KSNT 151951Z AUTO 32009G18KT 04/M07 A2991 RMK AO1 SLP101
T00441067





000
SAUS45 KPIH 151852
MTRSNT
METAR KSNT 151851Z AUTO 09003KT 03/M06 A2991 RMK AO1 SLP110
T00281056





000
SAUS45 KPIH 151752
MTRSNT
METAR KSNT 151751Z AUTO VRB04KT 04/M06 A2992 RMK AO1 SLP105
T00391056 10050 21050 53003





000
SAUS45 KPIH 151652
MTRSNT
METAR KSNT 151651Z AUTO VRB03KT 04/M08 A2991 RMK AO1 SLP099
T00391078





000
SAUS45 KPIH 151552
MTRSNT
METAR KSNT 151551Z AUTO 31006KT M02/M07 A2991 RMK AO1 SLP105
T10171072





000
SAUS45 KPIH 151452
MTRSNT
METAR KSNT 151451Z AUTO 00000KT M03/M08 A2991 RMK AO1 SLP113
T10281078 56019





000
SAUS45 KPIH 151352
MTRSNT
METAR KSNT 151351Z AUTO 05003KT M04/M08 A2992 RMK AO1 SLP109
T10441078





    US Dept of Commerce
    National Oceanic and Atmospheric Administration
    National Weather Service
    1325 East West Highway
    Silver Spring, MD 20910
    Page Author: NWS Internet Services Team
Disclaimer
Information Quality
Credits
Glossary
Privacy Policy
Freedom of Information Act (FOIA)
About Us
Career Opportunities